createdAt,value
2019-02-28T00:00:06.613Z,62.20
2019-02-28T00:05:11.171Z,62.60
2019-02-28T00:10:16.646Z,63.10
2019-02-28T00:15:22.139Z,63.30
2019-02-28T00:20:29.153Z,63.50
2019-02-28T00:25:37.517Z,64.00
2019-02-28T00:30:42.361Z,64.40
2019-02-28T00:35:47.763Z,64.70
2019-02-28T00:40:54.211Z,65.20
2019-02-28T00:45:59.805Z,65.60
2019-02-28T00:51:05.453Z,66.80
2019-02-28T00:56:11.452Z,67.50
2019-02-28T01:01:16.905Z,67.40
2019-02-28T01:06:22.493Z,67.40
2019-02-28T01:11:28.233Z,67.50
2019-02-28T01:16:33.959Z,67.60
2019-02-28T01:21:39.719Z,67.80
2019-02-28T01:26:46.766Z,68.10
2019-02-28T01:31:52.152Z,68.10
2019-02-28T01:36:57.781Z,68.30
2019-02-28T01:42:03.307Z,68.30
2019-02-28T01:47:09.010Z,68.70
2019-02-28T01:52:14.512Z,68.80
2019-02-28T01:57:19.929Z,69.10
2019-02-28T02:02:25.605Z,69.40
2019-02-28T02:07:33.344Z,69.70
2019-02-28T02:12:38.043Z,70.60
2019-02-28T02:17:43.455Z,70.70
2019-02-28T02:22:48.926Z,70.30
2019-02-28T02:27:54.449Z,70.20
2019-02-28T02:32:59.987Z,70.60
2019-02-28T02:38:05.474Z,71.50
2019-02-28T02:43:11.007Z,71.40
2019-02-28T02:48:16.595Z,70.80
2019-02-28T02:53:22.097Z,70.80
2019-02-28T02:58:28.199Z,71.20
2019-02-28T03:03:33.623Z,71.30
2019-02-28T03:08:39.365Z,71.50
2019-02-28T03:13:44.924Z,71.70
2019-02-28T03:18:56.553Z,71.90
2019-02-28T03:23:57.574Z,72.10
2019-02-28T03:29:07.508Z,72.30
2019-02-28T03:34:13.755Z,72.50
2019-02-28T03:39:24.229Z,72.80
2019-02-28T03:44:24.761Z,73.00
2019-02-28T03:49:30.176Z,73.20
2019-02-28T03:54:35.684Z,73.40
2019-02-28T03:59:41.743Z,73.60
2019-02-28T04:04:50.199Z,73.70
2019-02-28T04:09:54.323Z,74.00
2019-02-28T04:14:59.813Z,74.20
2019-02-28T04:20:05.532Z,74.40
2019-02-28T04:25:11.111Z,74.50
2019-02-28T04:30:16.637Z,74.80
2019-02-28T04:35:25.261Z,74.90
2019-02-28T04:40:29.523Z,75.10
2019-02-28T04:45:35.291Z,75.30
2019-02-28T04:50:40.750Z,75.60
2019-02-28T04:55:46.105Z,76.70
2019-02-28T05:00:51.576Z,77.00
2019-02-28T05:05:57.150Z,76.90
2019-02-28T05:11:03.185Z,76.80
2019-02-28T05:16:09.348Z,76.70
2019-02-28T05:21:16.554Z,76.30
2019-02-28T05:26:23.416Z,76.40
2019-02-28T05:31:28.900Z,76.60
2019-02-28T05:36:37.870Z,76.80
2019-02-28T05:41:42.010Z,76.90
2019-02-28T05:46:47.632Z,77.10
2019-02-28T05:51:53.235Z,77.30
2019-02-28T05:56:58.646Z,77.70
2019-02-28T06:02:04.134Z,77.90
2019-02-28T06:07:09.688Z,78.00
2019-02-28T06:12:15.304Z,78.20
2019-02-28T06:17:21.861Z,78.30
2019-02-28T06:22:27.326Z,78.90
2019-02-28T06:27:41.197Z,79.20
2019-02-28T06:32:40.113Z,79.20
2019-02-28T06:37:45.922Z,79.30
2019-02-28T06:42:51.437Z,78.90
2019-02-28T06:47:56.805Z,78.60
2019-02-28T06:53:02.291Z,78.30
2019-02-28T06:58:07.697Z,78.10
2019-02-28T07:03:13.308Z,77.60
2019-02-28T07:08:20.722Z,77.20
2019-02-28T07:13:25.795Z,76.80
2019-02-28T07:18:31.571Z,76.20
2019-02-28T07:23:37.096Z,75.60
2019-02-28T07:28:42.680Z,75.10
2019-02-28T07:33:48.067Z,74.50
2019-02-28T07:38:53.670Z,74.10
2019-02-28T07:43:59.317Z,73.30
2019-02-28T07:49:05.000Z,70.60
2019-02-28T07:54:12.632Z,61.20
2019-02-28T07:59:17.752Z,53.60
2019-02-28T08:04:23.344Z,48.60
2019-02-28T08:09:36.857Z,44.00
2019-02-28T08:14:43.670Z,39.80
2019-02-28T08:19:48.985Z,36.30
2019-02-28T08:24:54.441Z,33.40
2019-02-28T08:29:59.920Z,31.10
2019-02-28T08:35:05.591Z,28.40
2019-02-28T08:40:15.775Z,26.80
2019-02-28T08:45:21.928Z,25.20
2019-02-28T08:50:27.606Z,23.80
2019-02-28T08:55:33.479Z,22.90
2019-02-28T09:00:39.158Z,21.60
2019-02-28T09:05:45.308Z,20.90
2019-02-28T09:10:51.165Z,20.60
2019-02-28T09:15:57.318Z,20.00
2019-02-28T09:21:03.037Z,19.50
2019-02-28T09:26:08.752Z,18.70
2019-02-28T09:31:14.540Z,17.80
2019-02-28T09:36:20.891Z,17.10
2019-02-28T09:41:27.246Z,17.10
2019-02-28T09:46:32.983Z,16.90
2019-02-28T09:51:38.932Z,17.20
2019-02-28T09:56:45.305Z,17.00
2019-02-28T10:01:51.018Z,17.30
2019-02-28T10:06:56.999Z,18.30
2019-02-28T10:12:04.702Z,20.10
2019-02-28T10:17:10.128Z,22.40
2019-02-28T10:22:15.668Z,24.60
2019-02-28T10:27:23.303Z,26.30
2019-02-28T10:32:28.646Z,28.30
2019-02-28T10:37:35.654Z,29.80
2019-02-28T10:42:41.507Z,31.30
2019-02-28T10:47:46.996Z,33.10
2019-02-28T10:52:52.674Z,34.80
2019-02-28T10:57:58.147Z,35.80
2019-02-28T11:03:03.754Z,36.50
2019-02-28T11:08:12.474Z,37.00
2019-02-28T11:13:18.470Z,37.40
2019-02-28T11:18:24.107Z,37.60
2019-02-28T11:23:29.549Z,37.60
2019-02-28T11:28:35.025Z,38.20
2019-02-28T11:33:40.509Z,39.10
2019-02-28T11:38:45.924Z,39.80
2019-02-28T11:43:51.708Z,40.50
2019-02-28T11:48:57.445Z,40.80
2019-02-28T11:54:02.990Z,41.60
2019-02-28T11:59:08.442Z,42.20
2019-02-28T12:04:14.044Z,42.30
2019-02-28T12:09:20.114Z,42.80
2019-02-28T12:14:26.437Z,43.30
2019-02-28T12:19:32.742Z,44.00
2019-02-28T12:24:38.144Z,43.70
2019-02-28T12:29:45.692Z,43.70
2019-02-28T12:34:50.921Z,43.40
2019-02-28T12:39:56.703Z,43.50
2019-02-28T12:45:02.636Z,44.40
2019-02-28T12:50:09.219Z,45.20
2019-02-28T12:55:16.266Z,46.00
2019-02-28T13:00:25.362Z,47.40
2019-02-28T13:05:30.886Z,48.20
2019-02-28T13:10:36.538Z,49.50
2019-02-28T13:15:45.499Z,50.80
2019-02-28T13:20:49.134Z,52.40
2019-02-28T13:25:59.176Z,54.30
2019-02-28T13:31:02.026Z,55.60
2019-02-28T13:36:07.419Z,55.90
2019-02-28T13:41:17.807Z,56.50
2019-02-28T13:46:20.283Z,57.60
2019-02-28T13:51:25.751Z,57.80
2019-02-28T13:56:33.130Z,58.30
2019-02-28T14:01:39.859Z,58.40
2019-02-28T14:06:45.542Z,58.30
2019-02-28T14:11:51.951Z,58.70
2019-02-28T14:16:58.350Z,58.80
2019-02-28T14:22:04.267Z,59.40
2019-02-28T14:27:09.872Z,60.30
2019-02-28T14:32:15.626Z,59.70
2019-02-28T14:37:21.166Z,59.40
2019-02-28T14:42:27.037Z,59.10
2019-02-28T14:47:32.944Z,58.50
2019-02-28T14:52:39.402Z,58.40
2019-02-28T14:57:45.069Z,58.60
2019-02-28T15:02:50.803Z,59.00
2019-02-28T15:07:56.505Z,58.10
2019-02-28T15:13:02.183Z,57.50
2019-02-28T15:18:11.039Z,57.00
2019-02-28T15:23:15.529Z,56.90
2019-02-28T15:28:21.347Z,56.90
2019-02-28T15:33:27.508Z,56.60
2019-02-28T15:38:33.461Z,56.80
2019-02-28T15:43:39.392Z,56.70
2019-02-28T15:48:45.217Z,57.10
2019-02-28T15:53:50.717Z,57.40
2019-02-28T15:58:56.154Z,57.40
2019-02-28T16:04:01.530Z,57.50
2019-02-28T16:09:11.114Z,58.00
2019-02-28T16:14:16.493Z,58.30
2019-02-28T16:19:22.722Z,58.60
2019-02-28T16:24:30.878Z,59.40
2019-02-28T16:29:36.351Z,59.90
2019-02-28T16:34:42.231Z,60.10
2019-02-28T16:39:49.836Z,61.00
2019-02-28T16:44:55.314Z,61.90
2019-02-28T16:50:00.728Z,61.60
2019-02-28T16:55:06.737Z,62.60
2019-02-28T17:00:13.608Z,63.20
2019-02-28T17:05:19.051Z,63.70
2019-02-28T17:10:30.250Z,64.00
2019-02-28T17:16:01.383Z,64.80
2019-02-28T17:21:03.437Z,65.10
2019-02-28T17:26:09.044Z,65.00
2019-02-28T17:31:31.760Z,65.10
2019-02-28T17:36:37.233Z,65.00
2019-02-28T17:41:42.745Z,65.30
2019-02-28T17:46:51.552Z,65.70
2019-02-28T17:52:18.323Z,66.60
2019-02-28T17:58:29.801Z,66.40
2019-02-28T18:04:45.184Z,66.50
2019-02-28T18:10:25.122Z,66.80
2019-02-28T18:16:09.433Z,67.70
2019-02-28T18:21:51.648Z,67.30
2019-02-28T18:27:55.942Z,67.80
2019-02-28T18:33:03.154Z,68.00
2019-02-28T18:38:08.772Z,67.70
2019-02-28T18:43:14.807Z,67.90
2019-02-28T18:48:20.754Z,67.50
2019-02-28T18:53:26.670Z,67.80
2019-02-28T18:58:32.387Z,67.50
2019-02-28T19:03:38.194Z,68.10
2019-02-28T19:08:43.693Z,68.80
2019-02-28T19:13:49.188Z,69.30
2019-02-28T19:18:54.693Z,69.50
2019-02-28T19:24:00.027Z,70.20
2019-02-28T19:29:05.543Z,72.00
2019-02-28T19:34:10.949Z,71.30
2019-02-28T19:39:16.358Z,71.50
2019-02-28T19:44:23.657Z,72.10
2019-02-28T19:49:29.263Z,72.30
2019-02-28T19:54:34.715Z,73.00
2019-02-28T19:59:40.078Z,73.50
2019-02-28T20:04:45.773Z,73.60
2019-02-28T20:09:51.183Z,74.10
2019-02-28T20:14:56.577Z,74.00
2019-02-28T20:20:02.144Z,74.60
2019-02-28T20:25:10.198Z,74.30
2019-02-28T20:30:17.057Z,74.60
2019-02-28T20:35:26.474Z,74.70
2019-02-28T20:40:29.739Z,74.80
2019-02-28T20:45:35.209Z,75.00
2019-02-28T20:50:42.160Z,75.10
2019-02-28T20:55:47.696Z,75.30
2019-02-28T21:00:53.158Z,75.90
2019-02-28T21:05:58.527Z,75.80
2019-02-28T21:11:03.960Z,76.00
2019-02-28T21:16:09.460Z,76.20
2019-02-28T21:21:14.842Z,76.70
2019-02-28T21:26:20.317Z,76.80
2019-02-28T21:31:25.781Z,77.20
2019-02-28T21:36:31.528Z,77.60
2019-02-28T21:41:37.008Z,78.00
2019-02-28T21:46:42.378Z,78.10
2019-02-28T21:51:47.999Z,78.20
2019-02-28T21:56:54.804Z,78.10
2019-02-28T22:02:00.306Z,78.50
2019-02-28T22:07:05.743Z,78.80
2019-02-28T22:12:11.146Z,78.80
2019-02-28T22:17:17.180Z,79.00
2019-02-28T22:22:23.228Z,79.00
2019-02-28T22:27:29.041Z,79.10
2019-02-28T22:32:41.981Z,79.50
2019-02-28T22:37:47.780Z,79.30
2019-02-28T22:42:53.542Z,79.30
2019-02-28T22:47:59.470Z,79.40
2019-02-28T22:53:04.893Z,79.10
2019-02-28T22:58:11.405Z,79.00
2019-02-28T23:03:17.686Z,78.70
2019-02-28T23:08:23.369Z,78.60
2019-02-28T23:13:29.229Z,78.50
2019-02-28T23:18:34.970Z,78.40
2019-02-28T23:23:40.959Z,77.80
2019-02-28T23:28:55.398Z,77.60
2019-02-28T23:34:05.171Z,77.60
2019-02-28T23:39:11.181Z,77.60
2019-02-28T23:44:16.626Z,77.50
2019-02-28T23:49:23.037Z,77.40
2019-02-28T23:54:28.783Z,77.30
2019-02-28T23:59:34.322Z,77.40
